Time;durP1;ratioP1;P1;durP2;ratioP2;P2;SDS_P1;SDS_P2;PMS_P1;PMS_P2;Temp;Humidity;BMP_temperature;BMP_pressure;BME280_temperature;BME280_humidity;BME280_pressure;Samples;Min_cycle;Max_cycle;Signal;HPM_P1;HPM_P2
2022/02/19 00:01:47;;;;;;;12.57;1.63;;;6.30;99.90;;;;;;4989741;28;20057;-65
2022/02/19 00:04:13;;;;;;;13.63;1.65;;;6.30;99.90;;;;;;4989741;28;20572;-67
2022/02/19 00:06:39;;;;;;;16.90;2.63;;;6.30;99.90;;;;;;4989498;28;20034;-67
2022/02/19 00:09:05;;;;;;;6.35;1.20;;;6.20;99.90;;;;;;4989646;28;20026;-67
2022/02/19 00:11:31;;;;;;;13.02;1.60;;;6.20;99.90;;;;;;4987604;28;20119;-67
2022/02/19 00:13:57;;;;;;;6.88;1.35;;;6.10;99.90;;;;;;4988199;28;20117;-66
2022/02/19 00:16:22;;;;;;;11.82;1.77;;;6.10;99.90;;;;;;4990203;28;20034;-67
2022/02/19 00:18:49;;;;;;;10.95;1.48;;;6.10;99.90;;;;;;4993450;28;20498;-68
2022/02/19 00:21:14;;;;;;;6.38;1.35;;;6.10;99.90;;;;;;4988372;28;20045;-69
2022/02/19 00:23:41;;;;;;;9.98;1.65;;;6.10;99.90;;;;;;4993221;28;20398;-67
2022/02/19 00:26:07;;;;;;;7.35;2.03;;;6.10;99.90;;;;;;4992980;28;20030;-67
2022/02/19 00:28:33;;;;;;;11.20;1.23;;;6.10;99.90;;;;;;4992655;28;20034;-67
2022/02/19 00:30:58;;;;;;;12.95;1.50;;;6.10;99.90;;;;;;4992332;28;20049;-67
2022/02/19 00:33:25;;;;;;;7.18;0.93;;;6.10;99.90;;;;;;4992381;28;20038;-67
2022/02/19 00:35:51;;;;;;;10.73;1.38;;;6.10;99.90;;;;;;4992897;28;20391;-67
2022/02/19 00:38:17;;;;;;;12.80;2.38;;;6.20;99.90;;;;;;4992370;28;20038;-67
2022/02/19 00:40:48;;;;;;;14.25;1.55;;;6.20;99.90;;;;;;4990886;28;20041;-67
2022/02/19 00:43:13;;;;;;;;;;;6.30;99.90;;;;;;4992188;28;20034;-67
2022/02/19 00:45:39;;;;;;;15.20;1.60;;;6.30;99.90;;;;;;4992435;28;19925;-66
2022/02/19 00:48:05;;;;;;;11.10;1.30;;;6.30;99.90;;;;;;4991229;28;20092;-64
2022/02/19 00:50:31;;;;;;;8.63;1.35;;;6.30;99.90;;;;;;4991830;28;20525;-66
2022/02/19 00:52:57;;;;;;;6.57;1.00;;;6.20;99.90;;;;;;4991190;28;20061;-65
2022/02/19 00:55:23;;;;;;;8.48;1.63;;;6.30;99.90;;;;;;4989742;28;20026;-67
2022/02/19 00:57:49;;;;;;;5.00;0.75;;;6.30;99.90;;;;;;4991445;28;20429;-67
2022/02/19 01:00:15;;;;;;;5.22;1.20;;;6.30;99.90;;;;;;4991969;28;20038;-70
2022/02/19 01:02:41;;;;;;;19.95;2.72;;;6.20;99.90;;;;;;4992187;28;20109;-67
2022/02/19 01:05:07;;;;;;;11.15;1.50;;;6.20;99.90;;;;;;4992067;28;20479;-67
2022/02/19 01:07:33;;;;;;;13.10;1.83;;;6.20;99.90;;;;;;4989192;28;20065;-67
2022/02/19 01:09:59;;;;;;;13.57;1.92;;;6.20;99.90;;;;;;4992104;28;20026;-67
2022/02/19 01:12:25;;;;;;;14.23;1.58;;;6.20;99.90;;;;;;4991723;28;20513;-67
2022/02/19 01:14:51;;;;;;;3.63;0.77;;;6.20;99.90;;;;;;4990931;28;20065;-67
2022/02/19 01:17:16;;;;;;;9.18;1.00;;;6.20;99.90;;;;;;4991071;28;20244;-67
2022/02/19 01:19:42;;;;;;;10.15;1.73;;;6.20;99.90;;;;;;4992040;28;20053;-67
2022/02/19 01:22:08;;;;;;;8.45;1.13;;;6.20;99.90;;;;;;4991432;28;20092;-67
2022/02/19 01:24:34;;;;;;;12.52;2.13;;;6.20;99.90;;;;;;4990385;28;20048;-66
2022/02/19 01:27:00;;;;;;;8.30;1.55;;;6.20;99.90;;;;;;4991843;28;20486;-66
2022/02/19 01:29:25;;;;;;;10.45;1.15;;;6.20;99.90;;;;;;4990456;28;20114;-65
2022/02/19 01:31:51;;;;;;;10.80;2.22;;;6.20;99.90;;;;;;4991688;28;20035;-67
2022/02/19 01:34:17;;;;;;;7.35;1.40;;;6.20;99.90;;;;;;4991802;28;20479;-67
2022/02/19 01:36:43;;;;;;;12.15;1.10;;;6.20;99.90;;;;;;4990583;28;20038;-66
2022/02/19 01:39:09;;;;;;;13.50;1.23;;;6.20;99.90;;;;;;4991943;28;20693;-66
2022/02/19 01:41:35;;;;;;;13.80;1.15;;;6.30;99.90;;;;;;4992220;28;20042;-67
2022/02/19 01:44:05;;;;;;;7.95;1.33;;;6.20;99.90;;;;;;4992656;28;20034;-66
2022/02/19 01:46:31;;;;;;;3.00;0.83;;;6.30;99.90;;;;;;4990966;28;20130;-67
2022/02/19 01:48:56;;;;;;;6.43;1.08;;;6.30;99.90;;;;;;4991592;28;20368;-67
2022/02/19 01:51:22;;;;;;;5.93;1.52;;;6.20;99.90;;;;;;4990535;28;20085;-67
2022/02/19 01:53:47;;;;;;;8.15;1.85;;;6.20;99.90;;;;;;4990024;28;20399;-67
2022/02/19 01:56:14;;;;;;;10.85;1.75;;;6.30;99.90;;;;;;4991723;28;20405;-65
2022/02/19 01:58:40;;;;;;;15.65;1.75;;;6.20;99.90;;;;;;4987327;28;20493;-67
2022/02/19 02:01:05;;;;;;;8.68;0.73;;;6.20;99.90;;;;;;4991176;28;20058;-65
2022/02/19 02:03:31;;;;;;;7.25;1.67;;;6.30;99.90;;;;;;4990739;28;20644;-67
2022/02/19 02:05:57;;;;;;;7.43;1.05;;;6.30;99.90;;;;;;4991426;28;20042;-67
2022/02/19 02:08:23;;;;;;;5.22;1.75;;;6.30;99.90;;;;;;4990663;28;20498;-67
2022/02/19 02:10:49;;;;;;;10.80;0.98;;;6.30;99.90;;;;;;4990703;28;20031;-67
2022/02/19 02:13:15;;;;;;;9.05;1.60;;;6.30;99.90;;;;;;4990474;28;20042;-67
2022/02/19 02:15:40;;;;;;;7.07;0.80;;;6.30;99.90;;;;;;4991263;28;20371;-67
2022/02/19 02:18:06;;;;;;;8.95;1.02;;;6.40;99.90;;;;;;4989564;28;20097;-67
2022/02/19 02:20:32;;;;;;;14.50;1.23;;;6.30;99.90;;;;;;4988956;28;20077;-68
2022/02/19 02:22:58;;;;;;;5.68;1.35;;;6.30;99.90;;;;;;4991035;28;20031;-67
2022/02/19 02:25:27;;;;;;;15.90;1.40;;;6.20;99.90;;;;;;4990675;28;20096;-67
2022/02/19 02:27:53;;;;;;;11.20;0.75;;;6.30;99.90;;;;;;4990997;28;20465;-68
2022/02/19 02:30:19;;;;;;;12.60;1.50;;;6.20;99.90;;;;;;4990396;28;20042;-67
2022/02/19 02:32:44;;;;;;;20.67;2.03;;;6.20;99.90;;;;;;4990920;28;20038;-66
2022/02/19 02:35:10;;;;;;;12.40;2.22;;;6.20;99.90;;;;;;4990904;28;20148;-67
2022/02/19 02:37:35;;;;;;;10.05;1.30;;;6.20;99.90;;;;;;4990354;28;20033;-67
2022/02/19 02:40:01;;;;;;;15.43;2.00;;;6.10;99.90;;;;;;4989816;28;20101;-67
2022/02/19 02:42:27;;;;;;;6.00;0.88;;;6.10;99.90;;;;;;4990960;28;20039;-67
2022/02/19 02:44:52;;;;;;;13.90;1.75;;;6.10;99.90;;;;;;4989466;28;20091;-66
2022/02/19 02:47:18;;;;;;;14.55;1.88;;;6.00;99.90;;;;;;4990117;28;20034;-67
2022/02/19 02:49:44;;;;;;;13.13;1.10;;;6.00;99.90;;;;;;4990711;28;20100;-67
2022/02/19 02:52:09;;;;;;;12.10;1.80;;;6.00;99.90;;;;;;4990446;28;20045;-67
2022/02/19 02:54:36;;;;;;;9.05;0.98;;;6.00;99.90;;;;;;4987485;28;20130;-67
2022/02/19 02:57:02;;;;;;;23.70;1.42;;;6.00;99.90;;;;;;4989195;28;20418;-66
2022/02/19 02:59:28;;;;;;;12.43;0.95;;;6.00;99.90;;;;;;4988760;28;20125;-67
2022/02/19 03:01:53;;;;;;;13.98;1.17;;;6.10;99.90;;;;;;4990161;28;20172;-66
2022/02/19 03:04:19;;;;;;;12.13;0.93;;;6.10;99.90;;;;;;4989821;28;20524;-67
2022/02/19 03:06:44;;;;;;;10.57;1.73;;;6.10;99.90;;;;;;4990664;28;20462;-67
2022/02/19 03:09:10;;;;;;;11.52;1.50;;;6.10;99.90;;;;;;4988701;28;20441;-67
2022/02/19 03:11:36;;;;;;;13.88;1.80;;;6.10;99.90;;;;;;4989563;28;20030;-66
2022/02/19 03:14:05;;;;;;;11.65;2.13;;;6.10;99.90;;;;;;4989169;28;20390;-66
2022/02/19 03:16:31;;;;;;;12.88;1.70;;;6.00;99.90;;;;;;4990165;28;20031;-65
2022/02/19 03:18:57;;;;;;;11.77;1.30;;;6.00;99.90;;;;;;4990093;28;20121;-67
2022/02/19 03:21:23;;;;;;;18.40;1.30;;;6.00;99.90;;;;;;4989552;28;20141;-66
2022/02/19 03:23:48;;;;;;;11.82;1.65;;;6.00;99.90;;;;;;4990315;28;20080;-67
2022/02/19 03:26:14;;;;;;;12.02;1.45;;;6.00;99.90;;;;;;4990506;28;20426;-67
2022/02/19 03:28:39;;;;;;;10.68;1.58;;;6.10;99.90;;;;;;4989968;28;20038;-66
2022/02/19 03:31:05;;;;;;;9.52;1.05;;;6.10;99.90;;;;;;4990117;28;20066;-64
2022/02/19 03:33:31;;;;;;;13.57;1.55;;;6.10;99.90;;;;;;4989575;28;20031;-66
2022/02/19 03:35:56;;;;;;;14.60;2.15;;;6.00;99.90;;;;;;4990078;28;20092;-67
2022/02/19 03:38:22;;;;;;;15.50;1.73;;;6.10;99.90;;;;;;4989712;28;20042;-67
2022/02/19 03:40:48;;;;;;;8.05;1.23;;;6.00;99.90;;;;;;4989836;28;20041;-65
2022/02/19 03:43:14;;;;;;;11.45;1.90;;;6.00;99.90;;;;;;4990547;28;20041;-67
2022/02/19 03:45:43;;;;;;;13.98;1.40;;;5.90;99.90;;;;;;4989879;28;20063;-67
2022/02/19 03:48:09;;;;;;;8.30;1.98;;;5.90;99.90;;;;;;4990167;28;20061;-67
2022/02/19 03:50:35;;;;;;;12.95;1.88;;;6.00;99.90;;;;;;4989841;28;20473;-66
2022/02/19 03:53:00;;;;;;;10.82;1.45;;;5.90;99.90;;;;;;4992658;28;20031;-67
2022/02/19 03:55:26;;;;;;;6.88;1.38;;;6.00;99.90;;;;;;4993763;28;20115;-67
2022/02/19 03:57:52;;;;;;;13.40;1.50;;;6.00;99.90;;;;;;4994078;28;20853;-66
2022/02/19 04:00:17;;;;;;;6.05;1.00;;;6.00;99.90;;;;;;4992984;28;20049;-66
2022/02/19 04:02:43;;;;;;;9.75;2.78;;;6.10;99.90;;;;;;4993687;28;20038;-67
2022/02/19 04:05:10;;;;;;;10.70;1.35;;;6.10;99.90;;;;;;4993812;28;20395;-66
2022/02/19 04:07:36;;;;;;;6.75;1.42;;;6.00;99.90;;;;;;4993597;28;20031;-66
2022/02/19 04:10:03;;;;;;;6.95;1.10;;;6.10;99.90;;;;;;4993426;28;20049;-66
2022/02/19 04:12:29;;;;;;;9.63;1.27;;;6.10;99.90;;;;;;4992092;28;20041;-65
2022/02/19 04:14:54;;;;;;;13.80;1.60;;;6.00;99.90;;;;;;4993535;28;20031;-66
2022/02/19 04:17:21;;;;;;;9.82;1.67;;;6.10;99.90;;;;;;4992662;28;20047;-66
2022/02/19 04:19:50;;;;;;;12.73;2.05;;;6.10;99.90;;;;;;4993252;28;20080;-66
2022/02/19 04:22:16;;;;;;;5.82;1.08;;;6.10;99.90;;;;;;4991532;28;20405;-70
2022/02/19 04:24:41;;;;;;;15.73;1.60;;;6.10;99.90;;;;;;4993451;28;20069;-66
2022/02/19 04:27:07;;;;;;;16.52;1.65;;;6.10;99.90;;;;;;4992993;28;20030;-67
2022/02/19 04:29:33;;;;;;;11.55;1.25;;;6.10;99.90;;;;;;4992329;28;20034;-65
2022/02/19 04:31:58;;;;;;;11.15;1.27;;;6.10;99.90;;;;;;4993078;28;20030;-67
2022/02/19 04:34:24;;;;;;;2.72;0.95;;;6.00;99.90;;;;;;4992858;28;20157;-67
2022/02/19 04:36:51;;;;;;;5.40;0.88;;;6.10;99.90;;;;;;4993105;28;20113;-66
2022/02/19 04:39:17;;;;;;;4.18;1.45;;;6.00;99.90;;;;;;4992233;28;20145;-67
2022/02/19 04:41:43;;;;;;;6.43;1.08;;;6.10;99.90;;;;;;4994110;28;20113;-67
2022/02/19 04:44:09;;;;;;;10.15;1.67;;;6.10;99.90;;;;;;4992835;28;20173;-67
2022/02/19 04:46:34;;;;;;;10.32;1.80;;;6.00;99.90;;;;;;4995300;28;20038;-66
2022/02/19 04:49:00;;;;;;;15.05;1.88;;;6.00;99.90;;;;;;4994607;28;20038;-66
2022/02/19 04:51:26;;;;;;;8.70;2.25;;;6.00;99.90;;;;;;4992236;28;20030;-67
2022/02/19 04:53:51;;;;;;;13.15;3.13;;;6.00;99.90;;;;;;4991279;28;20117;-69
2022/02/19 04:56:17;;;;;;;7.78;1.20;;;6.00;99.90;;;;;;4992517;28;20034;-66
2022/02/19 04:58:43;;;;;;;7.95;0.90;;;6.00;99.90;;;;;;4992418;28;20549;-64
2022/02/19 05:01:08;;;;;;;12.30;2.20;;;5.90;99.90;;;;;;4990827;28;20046;-66
2022/02/19 05:03:35;;;;;;;8.10;1.58;;;5.90;99.90;;;;;;4990488;28;20026;-66
2022/02/19 05:06:01;;;;;;;11.10;1.77;;;5.90;99.90;;;;;;4992418;28;20408;-67
2022/02/19 05:08:27;;;;;;;14.32;2.20;;;5.80;99.90;;;;;;4988027;28;20046;-67
2022/02/19 05:10:53;;;;;;;20.85;2.20;;;5.80;99.90;;;;;;4991813;28;20081;-67
2022/02/19 05:13:18;;;;;;;8.25;1.70;;;5.80;99.90;;;;;;4990937;28;20031;-66
2022/02/19 05:15:44;;;;;;;11.30;1.30;;;5.80;99.90;;;;;;4990941;28;20107;-65
2022/02/19 05:18:09;;;;;;;12.35;1.33;;;5.80;99.90;;;;;;4992053;28;20450;-67
2022/02/19 05:20:37;;;;;;;9.35;1.48;;;5.80;99.90;;;;;;4991301;28;20049;-65
2022/02/19 05:23:03;;;;;;;6.65;0.85;;;5.80;99.90;;;;;;4992420;28;20574;-66
2022/02/19 05:25:28;;;;;;;6.57;1.00;;;5.80;99.90;;;;;;4991620;28;20109;-67
2022/02/19 05:27:54;;;;;;;11.40;2.08;;;5.80;99.90;;;;;;4992361;28;20517;-67
2022/02/19 05:30:19;;;;;;;7.38;2.08;;;5.80;99.90;;;;;;4991176;28;20042;-67
2022/02/19 05:32:45;;;;;;;11.80;1.52;;;5.90;99.90;;;;;;4991086;28;20034;-65
2022/02/19 05:35:11;;;;;;;13.80;1.80;;;5.90;99.90;;;;;;4992125;28;20092;-67
2022/02/19 05:37:36;;;;;;;12.85;1.95;;;5.90;99.90;;;;;;4990204;28;20097;-67
2022/02/19 05:40:04;;;;;;;5.60;0.90;;;5.80;99.90;;;;;;4989992;28;20038;-64
2022/02/19 05:42:29;;;;;;;10.32;2.10;;;5.80;99.90;;;;;;5022890;23;20048;-61
2022/02/19 05:44:55;;;;;;;10.48;0.90;;;5.80;99.90;;;;;;5020030;28;20033;-62
2022/02/19 05:47:21;;;;;;;15.30;1.75;;;5.80;99.90;;;;;;5030041;28;20041;-62
2022/02/19 05:49:48;;;;;;;8.80;1.48;;;5.90;99.90;;;;;;5030911;28;20029;-61
2022/02/19 05:52:14;;;;;;;5.57;1.38;;;5.90;99.90;;;;;;5030561;28;20041;-61
2022/02/19 05:54:40;;;;;;;10.20;1.88;;;5.90;99.90;;;;;;5030520;28;20026;-61
2022/02/19 05:57:06;;;;;;;9.77;1.00;;;5.90;99.90;;;;;;5030660;28;20041;-61
2022/02/19 05:59:31;;;;;;;6.70;1.67;;;5.80;99.90;;;;;;5030170;28;20029;-63
2022/02/19 06:01:57;;;;;;;8.95;0.80;;;5.80;99.90;;;;;;5029363;28;20037;-63
2022/02/19 06:04:22;;;;;;;14.15;3.15;;;5.80;99.90;;;;;;5030349;28;20119;-61
2022/02/19 06:06:48;;;;;;;5.50;1.45;;;5.80;99.90;;;;;;5030407;28;20033;-60
2022/02/19 06:09:13;;;;;;;17.77;3.95;;;5.90;99.90;;;;;;5030177;28;20044;-62
2022/02/19 06:11:42;;;;;;;8.98;1.70;;;5.90;99.90;;;;;;5029254;28;20485;-61
2022/02/19 06:14:08;;;;;;;10.43;1.55;;;5.90;99.90;;;;;;5029503;28;20123;-62
2022/02/19 06:16:35;;;;;;;9.70;1.70;;;5.90;99.90;;;;;;5029500;28;20481;-63
2022/02/19 06:19:00;;;;;;;11.23;1.65;;;5.90;99.90;;;;;;5029607;28;20133;-63
2022/02/19 06:21:26;;;;;;;9.07;0.90;;;5.90;99.90;;;;;;5029455;28;20140;-65
2022/02/19 06:23:52;;;;;;;8.88;1.42;;;5.90;99.90;;;;;;5029968;28;20393;-61
2022/02/19 06:26:17;;;;;;;14.20;1.88;;;5.80;99.90;;;;;;5028345;28;20044;-61
2022/02/19 06:28:43;;;;;;;8.95;1.63;;;5.80;99.90;;;;;;5028546;28;20033;-61
2022/02/19 06:31:09;;;;;;;9.82;1.20;;;5.90;99.90;;;;;;5029663;28;20041;-61
2022/02/19 06:33:34;;;;;;;6.20;1.33;;;5.80;99.90;;;;;;5028188;28;20504;-61
2022/02/19 06:36:00;;;;;;;13.07;1.15;;;5.90;99.90;;;;;;5029785;28;20124;-61
2022/02/19 06:38:25;;;;;;;16.52;1.17;;;5.90;99.90;;;;;;5029754;28;20059;-61
2022/02/19 06:40:51;;;;;;;18.92;1.73;;;5.90;99.90;;;;;;5029377;28;20029;-61
2022/02/19 06:43:16;;;;;;;7.97;0.95;;;5.90;99.90;;;;;;5029046;28;20407;-65
2022/02/19 06:45:42;;;;;;;7.25;1.25;;;5.80;99.90;;;;;;5027575;28;20029;-64
2022/02/19 06:48:07;;;;;;;17.17;1.38;;;5.80;99.90;;;;;;5029723;28;20420;-62
2022/02/19 06:50:33;;;;;;;11.05;1.02;;;5.80;99.90;;;;;;5029213;28;20030;-61
2022/02/19 06:52:59;;;;;;;7.88;1.75;;;5.80;99.90;;;;;;5029619;28;20116;-62
2022/02/19 06:55:25;;;;;;;11.82;1.60;;;5.80;99.90;;;;;;5029626;28;20393;-62
2022/02/19 06:57:50;;;;;;;13.00;1.60;;;5.80;99.90;;;;;;5029583;28;20037;-64
2022/02/19 07:00:17;;;;;;;8.70;1.55;;;5.70;99.90;;;;;;5028005;28;20057;-61
2022/02/19 07:02:42;;;;;;;3.60;1.30;;;5.80;99.90;;;;;;5028891;28;20043;-61
2022/02/19 07:05:09;;;;;;;6.40;1.05;;;5.80;99.90;;;;;;5029660;28;20039;-62
2022/02/19 07:07:35;;;;;;;7.75;1.42;;;5.80;99.90;;;;;;5027847;28;20037;-61
2022/02/19 07:10:02;;;;;;;8.65;0.95;;;5.80;99.90;;;;;;5027655;28;20033;-62
2022/02/19 07:12:27;;;;;;;14.10;1.23;;;5.80;99.90;;;;;;5028911;28;20136;-62
2022/02/19 07:14:53;;;;;;;6.30;1.15;;;5.80;99.90;;;;;;5027288;28;20121;-61
2022/02/19 07:17:19;;;;;;;7.70;1.38;;;5.90;99.90;;;;;;5027697;28;20041;-61
2022/02/19 07:19:44;;;;;;;7.85;1.33;;;5.90;99.90;;;;;;5028888;28;20046;-62
2022/02/19 07:22:10;;;;;;;10.88;1.65;;;5.90;99.90;;;;;;5028848;28;20124;-61
2022/02/19 07:24:35;;;;;;;8.23;1.00;;;6.00;99.90;;;;;;5026720;28;20036;-60
2022/02/19 07:27:02;;;;;;;6.85;1.15;;;6.00;99.90;;;;;;5031385;28;20046;-61
2022/02/19 07:29:28;;;;;;;12.23;2.25;;;5.90;99.90;;;;;;5032993;28;20033;-61
2022/02/19 07:31:53;;;;;;;9.68;1.58;;;5.90;99.90;;;;;;5032698;28;20041;-61
2022/02/19 07:34:19;;;;;;;9.50;1.23;;;6.00;99.90;;;;;;5032471;28;20060;-63
2022/02/19 07:36:44;;;;;;;16.50;3.45;;;5.90;99.90;;;;;;5032784;28;20033;-60
2022/02/19 07:39:11;;;;;;;13.05;1.90;;;6.00;99.90;;;;;;5032841;28;20029;-62
2022/02/19 07:41:37;;;;;;;9.73;1.08;;;6.00;99.90;;;;;;5031832;28;20034;-61
2022/02/19 07:44:04;;;;;;;14.70;1.77;;;6.10;99.90;;;;;;5033005;28;20029;-61
2022/02/19 07:46:30;;;;;;;11.98;1.38;;;6.10;99.90;;;;;;5031997;28;20532;-62
2022/02/19 07:48:55;;;;;;;10.95;0.95;;;6.10;99.90;;;;;;5031172;28;20038;-62
2022/02/19 07:59:33;;;;;;;12.57;1.40;;;6.20;99.90;;;;;;5030968;28;20037;-61
2022/02/19 08:01:59;;;;;;;16.27;1.58;;;6.30;99.90;;;;;;5031741;28;20034;-61
2022/02/19 08:04:25;;;;;;;11.60;1.23;;;6.30;99.90;;;;;;5031638;28;20025;-61
2022/02/19 08:06:51;;;;;;;13.60;1.50;;;6.30;99.90;;;;;;5032106;28;20049;-61
2022/02/19 08:09:16;;;;;;;7.30;1.13;;;6.40;99.90;;;;;;5032229;28;20128;-62
2022/02/19 08:11:42;;;;;;;10.68;1.35;;;6.40;99.90;;;;;;5029385;28;20118;-62
2022/02/19 08:14:08;;;;;;;13.73;1.15;;;6.40;99.90;;;;;;5032408;28;20116;-61
2022/02/19 08:16:33;;;;;;;14.77;1.98;;;6.50;99.90;;;;;;5031907;28;20053;-63
2022/02/19 08:18:59;;;;;;;6.78;1.02;;;6.50;99.90;;;;;;5032136;28;20029;-62
2022/02/19 08:21:26;;;;;;;8.05;1.77;;;6.60;99.90;;;;;;5031433;28;20499;-62
2022/02/19 08:23:52;;;;;;;8.65;1.20;;;6.60;99.90;;;;;;5030584;28;20389;-62
2022/02/19 08:26:24;;;;;;;6.57;1.40;;;6.50;99.90;;;;;;5031526;28;20044;-63
2022/02/19 08:28:53;;;;;;;3.35;0.80;;;6.40;99.90;;;;;;5029686;28;20072;-62
2022/02/19 08:31:18;;;;;;;9.10;2.03;;;6.40;99.90;;;;;;5027700;28;20386;-64
2022/02/19 08:33:44;;;;;;;13.50;2.38;;;6.40;99.90;;;;;;5031739;28;20041;-62
2022/02/19 08:36:10;;;;;;;9.93;1.17;;;6.40;99.90;;;;;;5032120;28;20038;-62
2022/02/19 08:38:35;;;;;;;6.20;0.68;;;6.50;99.90;;;;;;5030644;28;20037;-62
2022/02/19 08:41:01;;;;;;;2.85;0.57;;;6.60;99.90;;;;;;5031499;28;20022;-62
2022/02/19 08:43:27;;;;;;;7.80;1.48;;;6.80;99.90;;;;;;5031215;28;20040;-63
2022/02/19 08:45:52;;;;;;;7.10;1.10;;;6.80;99.90;;;;;;5031632;28;20022;-62
2022/02/19 08:48:18;;;;;;;4.30;1.20;;;6.90;99.90;;;;;;5031801;28;20171;-63
2022/02/19 08:50:44;;;;;;;11.93;1.17;;;7.00;99.90;;;;;;5031546;28;20040;-63
2022/02/19 08:53:11;;;;;;;8.63;1.13;;;7.00;99.90;;;;;;5026638;28;20041;-62
2022/02/19 08:55:37;;;;;;;6.28;1.48;;;7.10;99.90;;;;;;5029630;28;20072;-61
2022/02/19 08:58:03;;;;;;;8.88;1.42;;;7.10;99.90;;;;;;5030326;28;20038;-62
2022/02/19 09:00:29;;;;;;;12.32;1.45;;;7.20;99.90;;;;;;5029937;28;20485;-62
2022/02/19 09:02:54;;;;;;;8.70;1.08;;;7.10;99.90;;;;;;5029098;28;20045;-63
2022/02/19 09:05:20;;;;;;;12.90;1.40;;;7.10;99.90;;;;;;5030365;28;20048;-63
2022/02/19 09:07:46;;;;;;;6.28;0.82;;;7.10;99.90;;;;;;5028409;28;20037;-62
2022/02/19 09:10:13;;;;;;;8.60;1.27;;;7.20;99.90;;;;;;5028564;28;20084;-62
2022/02/19 09:12:46;;;;;;;5.78;1.20;;;7.40;99.90;;;;;;5028144;28;20100;-62
2022/02/19 09:15:13;;;;;;;9.48;1.23;;;7.50;99.90;;;;;;5029621;28;20037;-63
2022/02/19 09:17:39;;;;;;;11.20;1.08;;;7.70;99.90;;;;;;5028319;28;20558;-62
2022/02/19 09:20:05;;;;;;;6.28;0.80;;;7.70;99.90;;;;;;5030562;28;20124;-62
2022/02/19 09:22:31;;;;;;;6.97;1.70;;;7.70;99.90;;;;;;5027682;28;20445;-61
2022/02/19 09:24:56;;;;;;;8.73;1.23;;;7.70;99.90;;;;;;5029015;28;20496;-62
2022/02/19 09:27:22;;;;;;;9.27;1.27;;;7.80;99.90;;;;;;5028908;28;20044;-62
2022/02/19 09:29:48;;;;;;;10.55;0.80;;;7.90;99.90;;;;;;5028578;28;20037;-62
2022/02/19 09:32:13;;;;;;;13.20;1.70;;;8.00;99.90;;;;;;5029289;28;20045;-62
2022/02/19 09:34:39;;;;;;;9.70;1.20;;;8.00;99.90;;;;;;5027315;28;20424;-63
2022/02/19 09:37:04;;;;;;;7.93;1.52;;;8.00;99.90;;;;;;5028384;28;20049;-62
2022/02/19 09:39:30;;;;;;;8.55;0.90;;;7.90;99.90;;;;;;5028541;28;20056;-62
2022/02/19 09:42:02;;;;;;;8.45;0.90;;;8.00;99.90;;;;;;5029154;28;20052;-63
2022/02/19 09:44:27;;;;;;;10.57;1.55;;;8.00;99.90;;;;;;5027473;28;20033;-61
2022/02/19 09:46:55;;;;;;;15.65;1.08;;;8.10;99.90;;;;;;5029653;28;20489;-61
2022/02/19 09:49:20;;;;;;;12.13;1.20;;;8.10;99.90;;;;;;5026002;28;20038;-62
2022/02/19 09:51:46;;;;;;;4.18;0.98;;;8.20;99.90;;;;;;5029131;28;20495;-62
2022/02/19 09:54:11;;;;;;;2.95;0.65;;;8.10;99.90;;;;;;5027415;28;20576;-63
2022/02/19 09:56:37;;;;;;;16.30;2.65;;;8.10;99.90;;;;;;5029145;28;20424;-62
2022/02/19 09:59:06;;;;;;;14.13;1.80;;;8.00;99.90;;;;;;5029256;28;20045;-64
2022/02/19 10:01:31;;;;;;;3.75;0.60;;;7.80;99.90;;;;;;5027517;28;20049;-62
2022/02/19 10:04:02;;;;;;;13.65;1.90;;;7.70;99.90;;;;;;5033288;28;20025;-63
2022/02/19 10:06:33;;;;;;;9.13;0.85;;;7.70;99.90;;;;;;5033500;28;20093;-62
2022/02/19 10:09:18;;;;;;;3.95;0.70;;;7.70;99.90;;;;;;5034010;28;20037;-63
2022/02/19 10:11:45;;;;;;;9.52;1.23;;;7.80;99.90;;;;;;5028792;28;20547;-62
2022/02/19 10:14:20;;;;;;;2.72;0.63;;;7.90;99.90;;;;;;5026397;28;20049;-62
2022/02/19 10:17:07;;;;;;;7.05;0.70;;;7.90;99.90;;;;;;5026028;28;20071;-62
2022/02/19 10:19:49;;;;;;;6.57;1.00;;;7.90;99.90;;;;;;5027132;28;20034;-60
2022/02/19 10:22:23;;;;;;;6.25;1.17;;;8.00;99.90;;;;;;5027349;28;20056;-62
2022/02/19 10:24:55;;;;;;;7.97;1.10;;;7.90;99.90;;;;;;5028079;28;20033;-62
2022/02/19 10:27:21;;;;;;;7.32;1.70;;;8.00;99.90;;;;;;5028743;28;20393;-61
2022/02/19 10:29:55;;;;;;;5.88;0.75;;;8.10;99.90;;;;;;5028441;28;20060;-62
2022/02/19 10:32:23;;;;;;;5.38;0.88;;;8.20;99.90;;;;;;5028238;28;20684;-61
2022/02/19 10:35:05;;;;;;;5.78;1.20;;;8.40;99.90;;;;;;5026730;28;20036;-64
2022/02/19 10:37:41;;;;;;;11.65;2.15;;;8.50;99.90;;;;;;5028125;28;20052;-63
2022/02/19 10:40:08;;;;;;;6.72;0.75;;;8.70;99.90;;;;;;5027842;28;20032;-62
2022/02/19 10:42:35;;;;;;;8.23;1.27;;;8.80;99.90;;;;;;5027704;28;20095;-62
2022/02/19 10:45:09;;;;;;;6.38;1.48;;;8.90;99.90;;;;;;5028431;28;20029;-62
2022/02/19 10:47:35;;;;;;;9.38;1.45;;;9.00;99.90;;;;;;5026414;28;20025;-61
2022/02/19 10:50:12;;;;;;;6.30;0.80;;;9.10;99.90;;;;;;5027471;28;20541;-62
2022/02/19 10:52:42;;;;;;;6.28;1.50;;;8.90;99.90;;;;;;5027946;28;20504;-63
2022/02/19 10:55:19;;;;;;;7.70;0.52;;;8.80;99.90;;;;;;5026085;28;20056;-63
2022/02/19 10:57:46;;;;;;;10.63;2.45;;;8.60;99.90;;;;;;5023056;28;20440;-61
2022/02/19 11:00:17;;;;;;;10.00;1.40;;;8.40;99.90;;;;;;5026998;28;20698;-62
2022/02/19 11:02:43;;;;;;;9.30;1.42;;;8.30;99.90;;;;;;5024442;28;20037;-63
2022/02/19 11:05:11;;;;;;;14.68;1.90;;;8.30;99.90;;;;;;5029061;28;20045;-61
2022/02/19 11:07:38;;;;;;;9.43;1.17;;;8.40;99.90;;;;;;5029279;28;20042;-63
2022/02/19 11:10:20;;;;;;;8.13;0.90;;;8.50;99.90;;;;;;5029637;28;20041;-61
2022/02/19 11:12:47;;;;;;;10.02;2.17;;;8.60;99.90;;;;;;5026758;28;20033;-62
2022/02/19 11:15:16;;;;;;;10.88;1.52;;;8.60;99.90;;;;;;5029479;28;20037;-62
2022/02/19 11:17:41;;;;;;;6.05;0.93;;;8.50;99.90;;;;;;5029408;28;20037;-64
2022/02/19 11:20:11;;;;;;;16.02;1.15;;;8.60;99.90;;;;;;5029004;28;20037;-63
2022/02/19 11:22:38;;;;;;;9.07;0.98;;;8.60;99.90;;;;;;5032744;28;20034;-63
2022/02/19 11:25:07;;;;;;;8.85;1.10;;;8.80;99.90;;;;;;5029350;28;20405;-61
2022/02/19 11:27:38;;;;;;;5.65;1.05;;;9.00;99.90;;;;;;5029245;28;20037;-61
2022/02/19 11:30:06;;;;;;;14.60;1.85;;;9.10;99.90;;;;;;5029000;28;20115;-62
2022/02/19 11:32:36;;;;;;;4.32;0.80;;;9.30;99.90;;;;;;5028705;28;20029;-62
2022/02/19 11:35:02;;;;;;;10.37;0.90;;;9.30;99.90;;;;;;5029660;28;20026;-63
2022/02/19 11:37:27;;;;;;;8.60;0.90;;;9.50;99.90;;;;;;5029158;28;20176;-62
2022/02/19 11:40:02;;;;;;;9.90;1.35;;;9.50;99.90;;;;;;5024827;28;20077;-63
2022/02/19 11:42:48;;;;;;;9.68;0.90;;;9.40;99.90;;;;;;5022694;23;20042;-66
2022/02/19 11:45:30;;;;;;;4.13;0.60;;;9.20;99.90;;;;;;5007397;28;20030;-66
2022/02/19 11:48:02;;;;;;;10.15;1.95;;;9.00;99.90;;;;;;5009892;28;20045;-67
2022/02/19 11:50:30;;;;;;;2.55;0.50;;;8.80;99.90;;;;;;5005930;28;20034;-68
2022/02/19 11:53:10;;;;;;;6.75;0.80;;;8.60;99.90;;;;;;5008754;28;20049;-67
2022/02/19 11:55:45;;;;;;;8.27;1.35;;;8.50;99.90;;;;;;5002808;28;20108;-65
2022/02/19 11:58:22;;;;;;;11.85;1.65;;;8.20;99.90;;;;;;5005356;28;20056;-67
2022/02/19 12:01:00;;;;;;;6.45;1.58;;;8.20;99.90;;;;;;5008184;28;20092;-67
2022/02/19 12:03:36;;;;;;;4.20;0.70;;;8.30;99.90;;;;;;5007976;28;20129;-67
2022/02/19 12:06:18;;;;;;;5.70;0.57;;;8.60;99.90;;;;;;5007029;28;20034;-66
2022/02/19 12:08:47;;;;;;;8.02;1.15;;;8.80;99.90;;;;;;5003952;28;20034;-68
2022/02/19 12:11:17;;;;;;;7.32;0.77;;;9.00;99.90;;;;;;5007876;28;20038;-67
2022/02/19 12:13:44;;;;;;;7.13;1.13;;;9.20;99.90;;;;;;5009423;28;20026;-67
2022/02/19 12:16:27;;;;;;;11.18;0.75;;;9.30;99.90;;;;;;5012124;28;20049;-67
2022/02/19 12:18:57;;;;;;;9.65;0.90;;;9.40;99.90;;;;;;5011891;28;20026;-66
2022/02/19 12:21:41;;;;;;;6.10;1.87;;;9.40;99.90;;;;;;5011723;28;20026;-67
2022/02/19 12:24:12;;;;;;;6.40;0.70;;;9.40;99.90;;;;;;5004306;28;20273;-64
2022/02/19 12:29:28;;;;;;;11.77;1.15;;;9.50;99.90;;;;;;5013430;28;20528;-67
2022/02/19 12:32:19;;;;;;;6.25;0.75;;;9.60;99.90;;;;;;5014339;28;20028;-65
2022/02/19 12:34:56;;;;;;;;;;;9.60;99.90;;;;;;5009739;28;20116;-67
2022/02/19 12:37:23;;;;;;;8.85;0.43;;;9.50;99.90;;;;;;5013502;28;19913;-67
2022/02/19 12:39:51;;;;;;;1.67;0.50;;;9.40;99.90;;;;;;5013299;28;20062;-66
2022/02/19 12:42:22;;;;;;;4.43;0.60;;;9.40;99.90;;;;;;5010628;28;20638;-67
2022/02/19 12:45:05;;;;;;;8.70;1.58;;;9.30;99.90;;;;;;5012710;28;20049;-66
2022/02/19 12:47:32;;;;;;;6.13;0.75;;;9.10;99.90;;;;;;5013569;28;20486;-66
2022/02/19 12:49:57;;;;;;;7.28;0.70;;;9.10;99.90;;;;;;5011057;28;20048;-64
2022/02/19 12:52:24;;;;;;;12.45;1.05;;;9.10;99.90;;;;;;5012479;28;20029;-66
2022/02/19 12:54:50;;;;;;;9.77;1.58;;;9.10;99.90;;;;;;5013186;28;20037;-68
2022/02/19 12:57:19;;;;;;;4.53;1.10;;;9.10;99.90;;;;;;5012587;28;20053;-67
2022/02/19 12:59:45;;;;;;;5.60;0.82;;;9.10;99.90;;;;;;5012812;28;20080;-66
2022/02/19 13:02:12;;;;;;;4.50;0.47;;;9.20;99.90;;;;;;5012388;28;20084;-69
2022/02/19 13:04:42;;;;;;;9.10;1.02;;;9.20;99.90;;;;;;5012295;28;21800;-67